Time;durP1;ratioP1;P1;durP2;ratioP2;P2;SDS_P1;SDS_P2;PMS_P1;PMS_P2;Temp;Humidity;BMP_temperature;BMP_pressure;BME280_temperature;BME280_humidity;BME280_pressure;Samples;Min_cycle;Max_cycle;Signal;HPM_P1;HPM_P2
2022/10/17 00:00:15;;;;;;;14.68;6.75;;;;;;;;;;4959369;28;20044;-73
2022/10/17 00:02:40;;;;;;;15.50;7.22;;;;;;;;;;4964144;28;20064;-73
2022/10/17 00:05:05;;;;;;;17.13;7.15;;;;;;;;;;4955920;28;20051;-73
2022/10/17 00:07:33;;;;;;;11.82;6.90;;;;;;;;;;4959846;28;20045;-72
2022/10/17 00:10:01;;;;;;;16.48;7.63;;;;;;;;;;4957253;28;20046;-73
2022/10/17 00:12:26;;;;;;;15.63;7.30;;;;;;;;;;4953892;28;20038;-72
2022/10/17 00:14:52;;;;;;;18.73;7.88;;;;;;;;;;4953714;28;20053;-72
2022/10/17 00:17:17;;;;;;;17.33;8.23;;;;;;;;;;4953250;28;20411;-73
2022/10/17 00:19:45;;;;;;;16.05;8.23;;;;;;;;;;4971000;28;20969;-72
2022/10/17 00:22:11;;;;;;;13.05;7.78;;;;;;;;;;4957083;28;20135;-72
2022/10/17 00:24:36;;;;;;;15.63;7.85;;;;;;;;;;4958777;28;20522;-72
2022/10/17 00:27:04;;;;;;;15.68;8.48;;;;;;;;;;4957137;28;20058;-73
2022/10/17 00:29:29;;;;;;;18.90;8.18;;;;;;;;;;4956792;28;20777;-72
2022/10/17 00:31:56;;;;;;;13.68;8.30;;;;;;;;;;4957311;28;20045;-72
2022/10/17 00:34:22;;;;;;;17.50;8.77;;;;;;;;;;4958142;28;20034;-73
2022/10/17 00:36:47;;;;;;;18.73;8.73;;;;;;;;;;4958443;28;20108;-73
2022/10/17 00:39:12;;;;;;;17.38;8.88;;;;;;;;;;4957461;28;20883;-73
2022/10/17 00:41:38;;;;;;;17.08;9.10;;;;;;;;;;4958925;28;20034;-72
2022/10/17 00:44:03;;;;;;;18.83;8.57;;;;;;;;;;4957357;28;20042;-73
2022/10/17 00:46:29;;;;;;;16.00;8.38;;;;;;;;;;4957210;28;20045;-72
2022/10/17 00:48:58;;;;;;;20.15;9.55;;;;;;;;;;4955662;28;20749;-72
2022/10/17 00:51:49;;;;;;;19.77;9.05;;;;;;;;;;4956609;28;20544;-72
2022/10/17 00:54:15;;;;;;;16.87;8.80;;;;;;;;;;4957392;28;20034;-72
2022/10/17 00:56:41;;;;;;;16.38;8.90;;;;;;;;;;4959307;28;20362;-72
2022/10/17 00:59:08;;;;;;;14.73;9.15;;;;;;;;;;4959338;28;20744;-73
2022/10/17 01:01:33;;;;;;;14.57;9.30;;;;;;;;;;4958460;28;20624;-71
2022/10/17 01:03:59;;;;;;;13.40;8.77;;;;;;;;;;4956292;28;20030;-73
2022/10/17 01:06:24;;;;;;;14.32;9.00;;;;;;;;;;4973765;28;20216;-73
2022/10/17 01:08:50;;;;;;;15.85;9.10;;;;;;;;;;4958741;28;20034;-74
2022/10/17 01:11:26;;;;;;;17.98;9.88;;;;;;;;;;4945973;28;20065;-73
2022/10/17 01:13:56;;;;;;;13.25;8.90;;;;;;;;;;4959218;28;20042;-74
2022/10/17 01:16:34;;;;;;;17.30;10.00;;;;;;;;;;4958313;28;20046;-74
2022/10/17 01:19:02;;;;;;;15.35;10.18;;;;;;;;;;4958919;28;20117;-73
2022/10/17 01:21:43;;;;;;;20.48;10.35;;;;;;;;;;4957994;28;20038;-74
2022/10/17 01:24:12;;;;;;;15.85;10.82;;;;;;;;;;4970188;28;20034;-74
2022/10/17 01:26:40;;;;;;;18.67;11.40;;;;;;;;;;4954586;28;20038;-73
2022/10/17 01:29:15;;;;;;;18.38;10.95;;;;;;;;;;4956900;28;20048;-73
2022/10/17 01:31:45;;;;;;;20.75;11.68;;;;;;;;;;4956706;28;20606;-73
2022/10/17 01:34:14;;;;;;;19.65;11.20;;;;;;;;;;4956137;28;20065;-73
2022/10/17 01:36:48;;;;;;;16.55;10.75;;;;;;;;;;4956304;28;20038;-73
2022/10/17 01:39:28;;;;;;;19.77;11.02;;;;;;;;;;4957468;28;20393;-73
2022/10/17 01:41:54;;;;;;;17.27;12.00;;;;;;;;;;4955269;28;20042;-74
2022/10/17 01:44:19;;;;;;;19.02;11.68;;;;;;;;;;4970326;28;20088;-74
2022/10/17 01:46:53;;;;;;;16.73;11.80;;;;;;;;;;4961171;28;20038;-74
2022/10/17 01:49:20;;;;;;;17.73;11.43;;;;;;;;;;4957864;28;20180;-73
2022/10/17 01:51:52;;;;;;;18.15;12.02;;;;;;;;;;4956690;28;20045;-74
2022/10/17 01:54:25;;;;;;;19.33;12.27;;;;;;;;;;4958748;28;20040;-73
2022/10/17 01:56:57;;;;;;;16.60;12.23;;;;;;;;;;4971852;28;20744;-74
2022/10/17 01:59:28;;;;;;;20.23;12.68;;;;;;;;;;4958355;28;20038;-74
2022/10/17 02:01:57;;;;;;;18.63;12.10;;;;;;;;;;4971921;28;20120;-74
2022/10/17 02:04:23;;;;;;;18.63;13.10;;;;;;;;;;4957458;28;20057;-72
2022/10/17 02:06:48;;;;;;;19.52;12.10;;;;;;;;;;4957402;28;20034;-72
2022/10/17 02:09:22;;;;;;;19.10;12.00;;;;;;;;;;4959935;28;20131;-75
2022/10/17 02:12:06;;;;;;;20.80;12.95;;;;;;;;;;4957691;28;20597;-75
2022/10/17 02:14:37;;;;;;;22.10;13.70;;;;;;;;;;4957294;28;20802;-74
2022/10/17 02:17:12;;;;;;;23.35;14.68;;;;;;;;;;4958094;28;20156;-73
2022/10/17 02:20:00;;;;;;;19.92;14.38;;;;;;;;;;4956914;28;20134;-74
2022/10/17 02:22:26;;;;;;;25.83;14.48;;;;;;;;;;4951482;28;20030;-74
2022/10/17 02:24:51;;;;;;;24.35;15.45;;;;;;;;;;4957702;28;20041;-73
2022/10/17 02:27:19;;;;;;;18.77;14.88;;;;;;;;;;4955411;28;20037;-73
2022/10/17 02:29:48;;;;;;;20.15;14.80;;;;;;;;;;4958675;28;21565;-73
2022/10/17 02:32:20;;;;;;;19.85;14.38;;;;;;;;;;4957788;28;20034;-74
2022/10/17 02:34:46;;;;;;;;;;;;;;;;;;4957771;28;20026;-75
2022/10/17 02:37:13;;;;;;;27.90;17.38;;;;;;;;;;4956698;28;20728;-75
2022/10/17 02:39:40;;;;;;;23.65;15.30;;;;;;;;;;4956484;28;20852;-72
2022/10/17 02:42:08;;;;;;;34.70;19.38;;;;;;;;;;4957203;28;20034;-73
2022/10/17 02:44:36;;;;;;;35.13;20.42;;;;;;;;;;4956836;28;21009;-73
2022/10/17 02:47:16;;;;;;;25.05;17.17;;;;;;;;;;4954559;28;20117;-73
2022/10/17 02:49:44;;;;;;;26.52;16.13;;;;;;;;;;4955778;28;20109;-72
2022/10/17 02:52:19;;;;;;;25.23;16.98;;;;;;;;;;4955589;28;20034;-73
2022/10/17 02:54:47;;;;;;;25.15;17.00;;;;;;;;;;4956820;28;20037;-73
2022/10/17 02:57:12;;;;;;;23.38;16.98;;;;;;;;;;4953875;28;20049;-74
2022/10/17 02:59:40;;;;;;;20.90;15.35;;;;;;;;;;4957287;28;22265;-71
2022/10/17 03:02:07;;;;;;;23.52;16.67;;;;;;;;;;4954834;28;21159;-74
2022/10/17 03:04:33;;;;;;;28.25;17.83;;;;;;;;;;4957655;28;20047;-74
2022/10/17 03:06:58;;;;;;;31.08;20.52;;;;;;;;;;4956258;28;21234;-72
2022/10/17 03:09:24;;;;;;;30.65;20.58;;;;;;;;;;4957456;28;20049;-73
2022/10/17 03:11:50;;;;;;;33.83;21.02;;;;;;;;;;4953742;28;20659;-74
2022/10/17 03:14:15;;;;;;;36.22;21.83;;;;;;;;;;4958193;28;20137;-74
2022/10/17 03:16:40;;;;;;;30.17;17.13;;;;;;;;;;4956483;28;20033;-74
2022/10/17 03:19:06;;;;;;;28.13;15.68;;;;;;;;;;4957685;28;20050;-75
2022/10/17 03:21:32;;;;;;;27.17;17.60;;;;;;;;;;4964579;28;20097;-74
2022/10/17 03:23:57;;;;;;;26.33;16.38;;;;;;;;;;4957587;28;20042;-73
2022/10/17 03:26:23;;;;;;;28.38;19.05;;;;;;;;;;4971673;28;20850;-73
2022/10/17 03:28:48;;;;;;;39.53;21.80;;;;;;;;;;4957507;28;20065;-74
2022/10/17 03:31:14;;;;;;;34.33;20.42;;;;;;;;;;4966167;28;20050;-75
2022/10/17 03:33:42;;;;;;;28.25;17.50;;;;;;;;;;4955595;28;20057;-71
2022/10/17 03:36:11;;;;;;;32.17;18.55;;;;;;;;;;4956174;28;20681;-74
2022/10/17 03:38:37;;;;;;;36.45;19.77;;;;;;;;;;4957343;28;20046;-74
2022/10/17 03:41:02;;;;;;;26.23;17.33;;;;;;;;;;4955206;28;20034;-74
2022/10/17 03:43:28;;;;;;;26.55;15.52;;;;;;;;;;4954765;28;20046;-74
2022/10/17 03:45:56;;;;;;;21.65;14.52;;;;;;;;;;4956752;28;20125;-74
2022/10/17 03:48:24;;;;;;;27.58;13.68;;;;;;;;;;4955178;28;20038;-75
2022/10/17 03:50:49;;;;;;;23.85;14.88;;;;;;;;;;4955029;28;20140;-73
2022/10/17 03:53:14;;;;;;;23.30;13.20;;;;;;;;;;4957849;28;20096;-75
2022/10/17 03:55:42;;;;;;;23.77;13.90;;;;;;;;;;4960969;28;20034;-75
2022/10/17 03:58:08;;;;;;;25.27;15.80;;;;;;;;;;4960580;28;20127;-73
2022/10/17 04:00:34;;;;;;;25.75;14.65;;;;;;;;;;4959521;28;20073;-74
2022/10/17 04:03:00;;;;;;;25.50;14.13;;;;;;;;;;4959651;28;20678;-74
2022/10/17 04:05:30;;;;;;;24.35;13.52;;;;;;;;;;4960046;28;20085;-75
2022/10/17 04:07:56;;;;;;;23.65;14.02;;;;;;;;;;4957916;28;20137;-75
2022/10/17 04:10:23;;;;;;;25.75;14.77;;;;;;;;;;4958942;28;20733;-75
2022/10/17 04:12:48;;;;;;;25.35;15.07;;;;;;;;;;4960513;28;20886;-73
2022/10/17 04:15:14;;;;;;;30.27;15.20;;;;;;;;;;4959652;28;20038;-75
2022/10/17 04:17:42;;;;;;;19.90;12.25;;;;;;;;;;4960503;28;20839;-75
2022/10/17 04:20:07;;;;;;;31.52;15.73;;;;;;;;;;4950233;28;20030;-73
2022/10/17 04:22:33;;;;;;;40.95;19.35;;;;;;;;;;4973095;28;20038;-74
2022/10/17 04:24:58;;;;;;;44.67;20.50;;;;;;;;;;4958029;28;20101;-73
2022/10/17 04:27:24;;;;;;;40.13;20.05;;;;;;;;;;4958803;28;20656;-74
2022/10/17 04:29:49;;;;;;;34.13;18.98;;;;;;;;;;4955885;28;20034;-75
2022/10/17 04:32:17;;;;;;;36.88;19.40;;;;;;;;;;4957519;28;20045;-74
2022/10/17 04:34:47;;;;;;;37.22;18.42;;;;;;;;;;4958783;28;20034;-73
2022/10/17 04:37:13;;;;;;;34.53;18.75;;;;;;;;;;4958984;28;20026;-74
2022/10/17 04:39:38;;;;;;;36.03;18.55;;;;;;;;;;4959070;28;20808;-73
2022/10/17 04:42:03;;;;;;;35.85;16.95;;;;;;;;;;4959385;28;20045;-74
2022/10/17 04:44:29;;;;;;;32.47;18.17;;;;;;;;;;4957437;28;20030;-74
2022/10/17 04:46:55;;;;;;;39.33;19.52;;;;;;;;;;4958746;28;20030;-74
2022/10/17 04:49:20;;;;;;;28.05;15.73;;;;;;;;;;4959252;28;20036;-75
2022/10/17 04:51:45;;;;;;;23.92;14.30;;;;;;;;;;4959327;28;20046;-74
2022/10/17 04:54:11;;;;;;;31.23;16.50;;;;;;;;;;4956463;28;20069;-75
2022/10/17 04:56:38;;;;;;;28.85;17.83;;;;;;;;;;4960021;28;20053;-74
2022/10/17 04:59:03;;;;;;;24.90;14.05;;;;;;;;;;4956235;28;20057;-74
2022/10/17 05:01:28;;;;;;;21.42;12.95;;;;;;;;;;4959268;28;20054;-74
2022/10/17 05:03:54;;;;;;;23.42;12.38;;;;;;;;;;4950326;28;20133;-74
2022/10/17 05:06:21;;;;;;;21.90;13.02;;;;;;;;;;4957611;28;20031;-73
2022/10/17 05:08:52;;;;;;;17.92;11.95;;;;;;;;;;4958438;28;20139;-73
2022/10/17 05:11:21;;;;;;;28.58;14.35;;;;;;;;;;4959313;28;20050;-74
2022/10/17 05:13:55;;;;;;;31.67;15.80;;;;;;;;;;4956773;28;20120;-74
2022/10/17 05:16:21;;;;;;;16.83;11.63;;;;;;;;;;4958457;28;20026;-75
2022/10/17 05:18:47;;;;;;;17.67;9.75;;;;;;;;;;4959660;28;20034;-73
2022/10/17 05:21:15;;;;;;;14.95;9.73;;;;;;;;;;4957438;28;20040;-73
2022/10/17 05:23:40;;;;;;;19.80;10.82;;;;;;;;;;4967077;28;20037;-74
2022/10/17 05:26:05;;;;;;;25.33;12.40;;;;;;;;;;4956185;28;20749;-70
2022/10/17 05:28:33;;;;;;;20.35;11.70;;;;;;;;;;4957760;28;20026;-71
2022/10/17 05:31:03;;;;;;;20.20;10.40;;;;;;;;;;4959026;28;20962;-71
2022/10/17 05:33:29;;;;;;;18.52;10.30;;;;;;;;;;4958826;28;20133;-71
2022/10/17 05:35:54;;;;;;;14.98;10.38;;;;;;;;;;4957237;28;20037;-71
2022/10/17 05:38:22;;;;;;;17.05;9.98;;;;;;;;;;4956982;28;20471;-72
2022/10/17 05:40:47;;;;;;;22.00;11.68;;;;;;;;;;4958474;28;20141;-68
2022/10/17 05:43:14;;;;;;;18.15;11.05;;;;;;;;;;4955474;28;20064;-69
2022/10/17 05:45:39;;;;;;;20.38;10.60;;;;;;;;;;4959226;28;20043;-70
2022/10/17 05:48:05;;;;;;;17.60;10.90;;;;;;;;;;4957008;28;20035;-69
2022/10/17 05:50:33;;;;;;;22.88;12.45;;;;;;;;;;4956971;28;20042;-68
2022/10/17 05:52:58;;;;;;;21.05;10.07;;;;;;;;;;4957246;28;20063;-68
2022/10/17 05:55:24;;;;;;;16.20;9.82;;;;;;;;;;4957909;28;20864;-68
2022/10/17 05:57:51;;;;;;;18.08;9.75;;;;;;;;;;4958043;28;20033;-71
2022/10/17 06:00:19;;;;;;;17.33;11.50;;;;;;;;;;4956397;28;20042;-71
2022/10/17 06:02:47;;;;;;;24.30;14.07;;;;;;;;;;4971627;28;20672;-71
2022/10/17 06:05:13;;;;;;;21.17;11.68;;;;;;;;;;4957019;28;20192;-72
2022/10/17 06:07:39;;;;;;;16.83;11.23;;;;;;;;;;4957724;28;20042;-72
2022/10/17 06:10:05;;;;;;;19.20;11.25;;;;;;;;;;4956306;28;20039;-72
2022/10/17 06:12:31;;;;;;;18.38;11.18;;;;;;;;;;4956700;28;20022;-72
2022/10/17 06:14:56;;;;;;;15.15;11.32;;;;;;;;;;4956999;28;20927;-70
2022/10/17 06:17:21;;;;;;;21.48;11.07;;;;;;;;;;4957303;28;20116;-71
2022/10/17 06:19:47;;;;;;;19.60;10.50;;;;;;;;;;4957258;28;20045;-72
2022/10/17 06:22:15;;;;;;;24.17;13.00;;;;;;;;;;4948688;28;20053;-71
2022/10/17 06:24:43;;;;;;;17.83;11.43;;;;;;;;;;4957582;28;20034;-71
2022/10/17 06:27:10;;;;;;;17.00;11.15;;;;;;;;;;4958256;28;20219;-71
2022/10/17 06:29:38;;;;;;;13.07;9.23;;;;;;;;;;4957408;28;20037;-71
2022/10/17 06:32:05;;;;;;;13.35;10.82;;;;;;;;;;4954999;28;20754;-71
2022/10/17 06:34:30;;;;;;;18.33;11.68;;;;;;;;;;4955149;28;20049;-70
2022/10/17 06:36:58;;;;;;;19.63;12.32;;;;;;;;;;4955705;28;20042;-70
2022/10/17 06:39:25;;;;;;;18.42;11.52;;;;;;;;;;4958080;28;20037;-72
2022/10/17 06:41:51;;;;;;;16.15;10.23;;;;;;;;;;4955303;28;20034;-69
2022/10/17 06:44:16;;;;;;;18.35;10.95;;;;;;;;;;4956432;28;20131;-72
2022/10/17 06:46:42;;;;;;;20.92;13.05;;;;;;;;;;4955809;28;20041;-72
2022/10/17 06:49:08;;;;;;;18.40;11.63;;;;;;;;;;4956976;28;20048;-72
2022/10/17 06:51:34;;;;;;;24.00;13.82;;;;;;;;;;4956710;28;20077;-70
2022/10/17 06:53:59;;;;;;;20.25;12.50;;;;;;;;;;4956547;28;20026;-71
2022/10/17 06:56:25;;;;;;;17.98;10.50;;;;;;;;;;4958879;28;22360;-71
2022/10/17 06:58:51;;;;;;;19.58;10.23;;;;;;;;;;4955873;28;20041;-71
2022/10/17 07:01:17;;;;;;;21.38;11.07;;;;;;;;;;4955866;28;20878;-71
2022/10/17 07:03:48;;;;;;;18.52;11.32;;;;;;;;;;4956002;28;20042;-70
2022/10/17 07:06:16;;;;;;;19.23;12.15;;;;;;;;;;4956074;28;20231;-70
2022/10/17 07:08:47;;;;;;;21.20;12.32;;;;;;;;;;4956634;28;20113;-70
2022/10/17 07:11:14;;;;;;;17.58;11.10;;;;;;;;;;4956270;28;20054;-71
2022/10/17 07:13:39;;;;;;;38.55;15.98;;;;;;;;;;4957036;28;20919;-72
2022/10/17 07:16:06;;;;;;;24.33;13.48;;;;;;;;;;4958028;28;20092;-72
2022/10/17 07:18:32;;;;;;;26.10;13.60;;;;;;;;;;4956275;28;20137;-70
2022/10/17 07:20:58;;;;;;;20.42;11.65;;;;;;;;;;4955341;28;20034;-71
2022/10/17 07:23:24;;;;;;;22.50;11.02;;;;;;;;;;4954647;28;21147;-70
2022/10/17 07:25:50;;;;;;;23.35;11.13;;;;;;;;;;4960153;28;20057;-70
2022/10/17 07:28:17;;;;;;;22.48;11.75;;;;;;;;;;4952602;28;20042;-71
2022/10/17 07:30:43;;;;;;;19.77;12.02;;;;;;;;;;4959152;28;20042;-71
2022/10/17 07:33:08;;;;;;;17.00;10.70;;;;;;;;;;4947370;28;20159;-70
2022/10/17 07:35:34;;;;;;;18.23;10.70;;;;;;;;;;4961468;28;20072;-71
2022/10/17 07:38:02;;;;;;;16.92;10.60;;;;;;;;;;4958146;28;20062;-70
2022/10/17 07:40:30;;;;;;;15.90;9.98;;;;;;;;;;4959547;28;20037;-71
2022/10/17 07:42:55;;;;;;;18.73;11.32;;;;;;;;;;4975602;28;20834;-71
2022/10/17 07:45:22;;;;;;;19.35;10.95;;;;;;;;;;4961843;28;20045;-71
2022/10/17 07:47:47;;;;;;;15.30;9.85;;;;;;;;;;4975600;28;20058;-71
2022/10/17 07:50:13;;;;;;;16.73;9.77;;;;;;;;;;4958224;28;20368;-71
2022/10/17 07:52:41;;;;;;;15.05;8.98;;;;;;;;;;4959480;28;20605;-70
2022/10/17 07:55:09;;;;;;;16.17;9.80;;;;;;;;;;4959480;28;20042;-70
2022/10/17 07:57:35;;;;;;;21.33;9.95;;;;;;;;;;4958691;28;20057;-71
2022/10/17 08:00:00;;;;;;;13.82;10.70;;;;;;;;;;4957319;28;20092;-70
2022/10/17 08:02:26;;;;;;;17.98;11.95;;;;;;;;;;4960300;28;20076;-69
2022/10/17 08:04:52;;;;;;;18.45;13.55;;;;;;;;;;4959809;28;20050;-70
2022/10/17 08:07:19;;;;;;;18.23;11.95;;;;;;;;;;4962942;28;20143;-69
2022/10/17 08:09:46;;;;;;;21.58;13.30;;;;;;;;;;4962665;28;20038;-71
2022/10/17 08:12:13;;;;;;;21.63;13.73;;;;;;;;;;4975060;28;20963;-69
2022/10/17 08:14:39;;;;;;;23.35;14.98;;;;;;;;;;4960870;28;20034;-72
2022/10/17 08:17:04;;;;;;;20.65;13.80;;;;;;;;;;4959880;28;20069;-70
2022/10/17 08:19:31;;;;;;;24.48;15.75;;;;;;;;;;4959525;28;20030;-72
2022/10/17 08:22:01;;;;;;;25.92;16.23;;;;;;;;;;4959579;28;20831;-71
2022/10/17 08:24:27;;;;;;;24.75;16.45;;;;;;;;;;4959757;28;20034;-71
2022/10/17 08:26:53;;;;;;;16.75;12.43;;;;;;;;;;4954789;28;20042;-72
2022/10/17 08:29:19;;;;;;;26.38;13.48;;;;;;;;;;4959919;28;20138;-72
2022/10/17 08:31:44;;;;;;;21.98;13.82;;;;;;;;;;4958905;28;20608;-73
2022/10/17 08:34:12;;;;;;;20.27;13.40;;;;;;;;;;4963481;28;20112;-72
2022/10/17 08:36:40;;;;;;;24.17;16.67;;;;;;;;;;4954388;28;20219;-72
2022/10/17 08:39:05;;;;;;;26.77;17.48;;;;;;;;;;4951958;28;21353;-72
2022/10/17 08:41:37;;;;;;;31.83;15.90;;;;;;;;;;4966864;28;20034;-73
2022/10/17 08:44:11;;;;;;;35.55;16.67;;;;;;;;;;4950830;28;20601;-74
2022/10/17 08:46:41;;;;;;;28.73;14.82;;;;;;;;;;4949698;28;20551;-74
2022/10/17 08:49:11;;;;;;;28.75;17.65;;;;;;;;;;4927109;28;20045;-73
2022/10/17 08:51:40;;;;;;;24.45;14.63;;;;;;;;;;4959926;28;20758;-75
2022/10/17 08:54:13;;;;;;;33.30;16.88;;;;;;;;;;4959049;28;20038;-73
2022/10/17 08:56:42;;;;;;;31.00;17.45;;;;;;;;;;4951874;28;20967;-73
2022/10/17 08:59:22;;;;;;;33.30;16.95;;;;;;;;;;4933485;28;20042;-74
2022/10/17 09:01:53;;;;;;;34.35;18.90;;;;;;;;;;4901869;28;20043;-73
2022/10/17 09:04:31;;;;;;;24.92;12.57;;;;;;;;;;4917060;28;20851;-72
2022/10/17 09:07:17;;;;;;;26.60;10.20;;;;;;;;;;4933916;28;20037;-71
2022/10/17 09:09:58;;;;;;;27.70;9.57;;;;;;;;;;4893018;28;21038;-72
2022/10/17 09:12:39;;;;;;;30.08;9.73;;;;;;;;;;4963506;28;20068;-71
2022/10/17 09:15:33;;;;;;;21.20;9.10;;;;;;;;;;4929703;28;20769;-71
2022/10/17 09:18:23;;;;;;;29.05;10.30;;;;;;;;;;4909600;28;20814;-71
2022/10/17 09:20:58;;;;;;;25.83;9.50;;;;;;;;;;4915583;28;20819;-71
2022/10/17 09:23:38;;;;;;;24.55;9.60;;;;;;;;;;4911820;28;20574;-71
2022/10/17 09:26:15;;;;;;;25.52;8.80;;;;;;;;;;4914105;28;20029;-72
2022/10/17 09:28:45;;;;;;;24.98;8.27;;;;;;;;;;4914559;28;20088;-72
2022/10/17 09:31:11;;;;;;;29.23;8.95;;;;;;;;;;4936555;28;20159;-71
2022/10/17 09:33:40;;;;;;;20.75;7.65;;;;;;;;;;4939873;28;20038;-71
2022/10/17 09:36:15;;;;;;;20.70;7.13;;;;;;;;;;4932491;28;20053;-72
2022/10/17 09:38:47;;;;;;;24.52;7.72;;;;;;;;;;4960202;28;20691;-72
2022/10/17 09:41:21;;;;;;;18.10;7.43;;;;;;;;;;4953053;28;20042;-72
2022/10/17 09:43:58;;;;;;;17.47;7.47;;;;;;;;;;4952284;28;20964;-72
2022/10/17 09:46:35;;;;;;;24.17;7.68;;;;;;;;;;4956837;28;20345;-72
2022/10/17 09:49:13;;;;;;;23.20;7.10;;;;;;;;;;4943376;28;20894;-72
2022/10/17 09:51:39;;;;;;;21.30;7.32;;;;;;;;;;4953928;28;20063;-71
2022/10/17 09:54:24;;;;;;;21.67;6.72;;;;;;;;;;4956581;28;20030;-71
2022/10/17 09:57:15;;;;;;;19.20;6.55;;;;;;;;;;4953380;28;20129;-70
2022/10/17 09:59:43;;;;;;;20.75;5.63;;;;;;;;;;4941744;28;20896;-71
2022/10/17 10:02:12;;;;;;;14.38;5.25;;;;;;;;;;4955269;28;20037;-71
2022/10/17 10:04:50;;;;;;;18.38;5.70;;;;;;;;;;4950120;28;20378;-71
2022/10/17 10:07:19;;;;;;;17.90;5.53;;;;;;;;;;4952275;28;20041;-72
2022/10/17 10:09:45;;;;;;;14.02;5.32;;;;;;;;;;4950417;28;20041;-71
2022/10/17 10:12:22;;;;;;;23.70;5.60;;;;;;;;;;4952865;28;20808;-72
2022/10/17 10:14:48;;;;;;;16.27;4.85;;;;;;;;;;4940341;28;20744;-71
2022/10/17 10:17:26;;;;;;;12.43;4.93;;;;;;;;;;4953999;28;20042;-73
2022/10/17 10:19:54;;;;;;;13.95;4.95;;;;;;;;;;4948522;28;20072;-71
2022/10/17 10:22:25;;;;;;;10.43;4.40;;;;;;;;;;4947171;28;20537;-71
2022/10/17 10:25:14;;;;;;;16.30;5.10;;;;;;;;;;4907826;28;20748;-71
2022/10/17 10:27:47;;;;;;;15.85;4.53;;;;;;;;;;4903335;28;20696;-72
2022/10/17 10:30:17;;;;;;;11.70;4.22;;;;;;;;;;4917320;28;20587;-72
2022/10/17 10:32:47;;;;;;;13.15;4.40;;;;;;;;;;4902120;28;20420;-72
2022/10/17 10:35:22;;;;;;;13.98;4.13;;;;;;;;;;4915581;28;20046;-72
2022/10/17 10:38:01;;;;;;;11.48;4.20;;;;;;;;;;4915154;28;20030;-72
2022/10/17 10:40:48;;;;;;;11.20;4.68;;;;;;;;;;4900535;28;20979;-71
2022/10/17 10:43:20;;;;;;;12.70;4.65;;;;;;;;;;4923333;28;20038;-73
2022/10/17 10:45:46;;;;;;;14.70;4.65;;;;;;;;;;4929200;28;20073;-72
2022/10/17 10:48:35;;;;;;;15.10;4.53;;;;;;;;;;4930156;28;20110;-72
2022/10/17 10:51:07;;;;;;;9.40;4.22;;;;;;;;;;4879169;28;20565;-73
2022/10/17 10:53:33;;;;;;;13.30;4.82;;;;;;;;;;4882338;28;20654;-72
2022/10/17 10:56:00;;;;;;;14.68;5.57;;;;;;;;;;4885231;28;20038;-72
2022/10/17 10:58:31;;;;;;;14.82;4.55;;;;;;;;;;4936100;28;20051;-72
2022/10/17 11:01:16;;;;;;;15.02;4.97;;;;;;;;;;4935393;28;20377;-71
2022/10/17 11:03:55;;;;;;;18.30;4.65;;;;;;;;;;4931946;28;20060;-71
2022/10/17 11:06:26;;;;;;;15.77;5.68;;;;;;;;;;4921573;28;20077;-72
2022/10/17 11:09:01;;;;;;;;;;;;;;;;;;4947019;28;20045;-72
2022/10/17 11:11:41;;;;;;;16.73;5.32;;;;;;;;;;4914600;28;20191;-71
2022/10/17 11:14:15;;;;;;;12.75;5.13;;;;;;;;;;4948379;28;20443;-72
2022/10/17 11:16:49;;;;;;;16.60;5.10;;;;;;;;;;4956282;28;20680;-71
2022/10/17 11:19:23;;;;;;;20.35;5.55;;;;;;;;;;4932753;28;20130;-72
2022/10/17 11:21:52;;;;;;;12.20;4.95;;;;;;;;;;4945199;28;20046;-71
2022/10/17 11:24:23;;;;;;;17.15;5.18;;;;;;;;;;4932526;28;20034;-71
2022/10/17 11:27:05;;;;;;;13.48;5.10;;;;;;;;;;4949828;28;20038;-71
2022/10/17 11:29:39;;;;;;;14.07;5.45;;;;;;;;;;4943888;28;20068;-71
2022/10/17 11:32:09;;;;;;;14.90;5.60;;;;;;;;;;4964167;28;20046;-71
2022/10/17 11:34:42;;;;;;;15.27;5.22;;;;;;;;;;4918285;28;20109;-71
2022/10/17 11:37:08;;;;;;;;;;;;;;;;;;4949236;28;20046;-71
2022/10/17 11:39:36;;;;;;;15.32;4.20;;;;;;;;;;4964207;28;19969;-72
2022/10/17 11:42:05;;;;;;;13.88;4.30;;;;;;;;;;4950380;28;20034;-72
2022/10/17 11:44:35;;;;;;;11.00;4.32;;;;;;;;;;4941852;28;20177;-72
2022/10/17 11:47:07;;;;;;;14.30;4.82;;;;;;;;;;4946096;28;20051;-72
2022/10/17 11:49:46;;;;;;;12.15;5.18;;;;;;;;;;4957318;28;20030;-72
2022/10/17 11:52:23;;;;;;;15.68;4.80;;;;;;;;;;4938784;28;20093;-70
2022/10/17 11:54:59;;;;;;;13.80;4.47;;;;;;;;;;4944036;28;20042;-70
2022/10/17 11:57:44;;;;;;;11.65;4.15;;;;;;;;;;4961371;28;20034;-70
2022/10/17 12:00:28;;;;;;;13.93;4.75;;;;;;;;;;4949593;28;20042;-69
2022/10/17 12:02:56;;;;;;;17.88;4.82;;;;;;;;;;4949984;28;20042;-69
2022/10/17 12:05:26;;;;;;;12.32;4.40;;;;;;;;;;4943644;28;20600;-71
2022/10/17 12:07:59;;;;;;;11.98;4.68;;;;;;;;;;4948376;28;20124;-71
2022/10/17 12:10:54;;;;;;;12.50;4.50;;;;;;;;;;4951875;28;20066;-73
2022/10/17 12:13:32;;;;;;;13.48;4.50;;;;;;;;;;4954546;28;20100;-72
2022/10/17 12:16:17;;;;;;;14.10;4.03;;;;;;;;;;4953362;28;20030;-71
2022/10/17 12:18:49;;;;;;;14.23;3.55;;;;;;;;;;4945864;28;20041;-70
2022/10/17 12:21:15;;;;;;;15.50;3.90;;;;;;;;;;4962547;28;20034;-71
2022/10/17 12:23:53;;;;;;;13.50;3.90;;;;;;;;;;4950922;28;20139;-72
2022/10/17 12:26:28;;;;;;;8.38;3.67;;;;;;;;;;4953405;28;20031;-72
2022/10/17 12:28:57;;;;;;;13.40;3.63;;;;;;;;;;4961843;28;20038;-72
2022/10/17 12:31:26;;;;;;;10.05;3.70;;;;;;;;;;4939355;28;20997;-70
2022/10/17 12:33:52;;;;;;;10.95;3.30;;;;;;;;;;4955800;28;20169;-71
2022/10/17 12:36:21;;;;;;;11.90;3.30;;;;;;;;;;4952923;28;20038;-71
2022/10/17 12:38:48;;;;;;;11.15;3.55;;;;;;;;;;4950455;28;20041;-72
2022/10/17 12:41:39;;;;;;;8.35;3.33;;;;;;;;;;4953275;28;20054;-71
2022/10/17 12:44:20;;;;;;;11.93;3.47;;;;;;;;;;4928679;28;20047;-72
2022/10/17 12:46:48;;;;;;;6.85;3.00;;;;;;;;;;4907035;28;20042;-72
2022/10/17 12:49:21;;;;;;;9.88;3.35;;;;;;;;;;4887002;28;20116;-72
2022/10/17 12:52:07;;;;;;;8.48;3.15;;;;;;;;;;4917234;28;20050;-72
2022/10/17 12:54:44;;;;;;;10.52;3.30;;;;;;;;;;4959189;28;20097;-73
2022/10/17 12:57:35;;;;;;;11.20;3.55;;;;;;;;;;4940815;28;20113;-72
2022/10/17 13:00:05;;;;;;;9.50;3.38;;;;;;;;;;4915515;28;20080;-72
2022/10/17 13:02:55;;;;;;;12.50;3.63;;;;;;;;;;4932154;28;20072;-73
2022/10/17 13:05:25;;;;;;;8.15;3.25;;;;;;;;;;4907665;28;20066;-73
2022/10/17 13:07:52;;;;;;;12.05;3.30;;;;;;;;;;4938082;28;20486;-73
2022/10/17 13:10:25;;;;;;;10.30;3.58;;;;;;;;;;4951000;28;20145;-73
2022/10/17 13:12:56;;;;;;;10.90;3.25;;;;;;;;;;4951815;28;20045;-72
2022/10/17 13:15:22;;;;;;;10.97;3.00;;;;;;;;;;4939759;28;20661;-72
2022/10/17 13:17:54;;;;;;;11.10;3.20;;;;;;;;;;4960823;28;20135;-73
2022/10/17 13:20:24;;;;;;;12.00;3.50;;;;;;;;;;4953245;28;20037;-73
2022/10/17 13:22:49;;;;;;;11.77;3.65;;;;;;;;;;4957095;28;20054;-73
2022/10/17 13:25:16;;;;;;;13.43;3.70;;;;;;;;;;4953369;28;20072;-73
2022/10/17 13:27:42;;;;;;;14.20;3.80;;;;;;;;;;4945812;28;20050;-73
2022/10/17 13:30:40;;;;;;;8.93;3.65;;;;;;;;;;4963114;28;20229;-73
2022/10/17 13:33:30;;;;;;;10.05;4.43;;;;;;;;;;4918094;28;20546;-72
2022/10/17 13:35:59;;;;;;;23.88;8.82;;;;;;;;;;4909719;28;20380;-73
2022/10/17 13:38:32;;;;;;;28.10;12.07;;;;;;;;;;4949613;28;20034;-72
2022/10/17 13:41:12;;;;;;;26.13;11.60;;;;;;;;;;4950678;28;20044;-72
2022/10/17 13:43:41;;;;;;;23.52;11.05;;;;;;;;;;4946515;28;20450;-72
2022/10/17 13:46:21;;;;;;;20.88;9.27;;;;;;;;;;4939187;28;20042;-72
2022/10/17 13:48:49;;;;;;;16.45;8.20;;;;;;;;;;4925672;28;20040;-73
2022/10/17 13:51:17;;;;;;;18.55;8.30;;;;;;;;;;4950101;28;20541;-72
2022/10/17 13:53:45;;;;;;;14.93;7.05;;;;;;;;;;4946509;28;20069;-73
2022/10/17 13:56:25;;;;;;;15.18;6.95;;;;;;;;;;4963314;28;20487;-73
2022/10/17 13:58:52;;;;;;;16.80;8.23;;;;;;;;;;4944046;28;20895;-73
2022/10/17 14:01:25;;;;;;;23.17;8.82;;;;;;;;;;4953340;28;20585;-73
2022/10/17 14:03:51;;;;;;;19.95;11.38;;;;;;;;;;4956960;28;20041;-72
2022/10/17 14:06:20;;;;;;;13.38;5.65;;;;;;;;;;4947436;28;20273;-72
2022/10/17 14:08:51;;;;;;;11.27;4.10;;;;;;;;;;4941375;28;20141;-72
2022/10/17 14:11:21;;;;;;;13.55;4.40;;;;;;;;;;4953726;28;20078;-71
2022/10/17 14:13:48;;;;;;;;;;;;;;;;;;4946966;28;20727;-72
2022/10/17 14:16:15;;;;;;;11.90;3.08;;;;;;;;;;4956626;28;19917;-72
2022/10/17 14:18:46;;;;;;;9.73;2.97;;;;;;;;;;4954609;28;20037;-72
2022/10/17 14:21:17;;;;;;;10.48;3.15;;;;;;;;;;4952934;28;20038;-72
2022/10/17 14:23:45;;;;;;;10.02;2.90;;;;;;;;;;4950358;28;21014;-71
2022/10/17 14:26:16;;;;;;;21.08;3.40;;;;;;;;;;4961247;28;20120;-72
2022/10/17 14:28:44;;;;;;;11.52;2.63;;;;;;;;;;4951548;28;20924;-72
2022/10/17 14:31:12;;;;;;;12.68;3.15;;;;;;;;;;4944483;28;20062;-72
2022/10/17 14:33:42;;;;;;;10.57;3.22;;;;;;;;;;4954958;28;20046;-71
2022/10/17 14:36:07;;;;;;;13.23;2.85;;;;;;;;;;4953851;28;23966;-72
2022/10/17 14:38:34;;;;;;;11.13;2.97;;;;;;;;;;4949654;28;20029;-72
2022/10/17 14:41:03;;;;;;;17.70;3.20;;;;;;;;;;4949256;28;20739;-72